WetterOnline ( https://www.wetteronline.de )

Wetter aktuell Hildesheim

Aktuelles Wetter: Alfeld (148m)

6-stündlich | Neueste Meldungen
Ortszeit Temperatur Wetter
Mo, 20.05. 14:00 20.1° C leicht bewölkt
Sa, 18.05. 8:00 7.0° C bedeckt
Sa, 18.05. 2:00 6.9° C wolkenlos
Fr, 17.05. 20:00 14.2° C bedeckt
Fr, 17.05. 14:00 13.5° C bewölkt
Fr, 17.05. 8:00 8.5° C bewölkt
Fr, 17.05. 2:00 7.9° C bewölkt
Do, 16.05. 20:00 8.3° C Sprühregen
Ortszeit Temperatur Wetter
Mo, 20.05. 15:00 20.1° C wolkig
Mo, 20.05. 14:50 20.1° C wolkig
Mo, 20.05. 14:40 20.2° C wolkig
Mo, 20.05. 14:30 20.7° C leicht bewölkt
Mo, 20.05. 14:20 20.7° C leicht bewölkt
Mo, 20.05. 14:10 20.9° C leicht bewölkt
Mo, 20.05. 14:00 20.1° C leicht bewölkt
Mo, 20.05. 13:30 19.5° C wolkig
Mo, 20.05. 13:00 19.1° C leicht bewölkt
Mo, 20.05. 12:30 19.7° C leicht bewölkt
Mo, 20.05. 12:00 19.6° C leicht bewölkt
Ortszeit Relative Feuchte Sichtweite
Mo, 20.05. 14:00 75% 18 km
Sa, 18.05. 8:00 100% 1.9 km
Sa, 18.05. 2:00 100% 1.2 km
Fr, 17.05. 20:00 67% 55 km
Fr, 17.05. 14:00 74% 25 km
Fr, 17.05. 8:00 95% 7 km
Fr, 17.05. 2:00 99% 3.8 km
Do, 16.05. 20:00 96% 4.8 km
Ortszeit Relative Feuchte Sichtweite
Mo, 20.05. 15:00 74% 18 km
Mo, 20.05. 14:50 74% -
Mo, 20.05. 14:40 73% -
Mo, 20.05. 14:30 71% 20 km
Mo, 20.05. 14:20 71% -
Mo, 20.05. 14:10 70% -
Mo, 20.05. 14:00 75% 18 km
Mo, 20.05. 13:30 74% 17 km
Mo, 20.05. 13:00 75% 15 km
Mo, 20.05. 12:30 72% 20 km
Mo, 20.05. 12:00 73% 20 km
Ortszeit Niederschlagsmenge Niederschlagsart
Mo, 20.05. 14:00 0.1 l/m2 in 6 Std. Schneeregen
Sa, 18.05. 8:00 0.0 l/m2 in 12 Std. -
Sa, 18.05. 2:00 0.0 l/m2 in 6 Std. -
Fr, 17.05. 20:00 0.0 l/m2 in 12 Std. -
Fr, 17.05. 14:00 0.0 l/m2 in 6 Std. -
Fr, 17.05. 8:00 0.1 l/m2 in 12 Std. -
Fr, 17.05. 2:00 0.1 l/m2 in 6 Std. Sprühregen
Do, 16.05. 20:00 5 l/m2 in 12 Std. Regen
Ortszeit Niederschlagsmenge Niederschlagsart
Mo, 20.05. 15:00 0.0 l/m2 in 1 Std. -
Mo, 20.05. 14:50 keine Meldung -
Mo, 20.05. 14:40 keine Meldung -
Mo, 20.05. 14:30 0.0 l/m2 in 1 Std. -
Mo, 20.05. 14:20 keine Meldung -
Mo, 20.05. 14:10 keine Meldung -
Mo, 20.05. 14:00 0.1 l/m2 in 1 Std. Schneeregen
Mo, 20.05. 13:30 0.0 l/m2 in 1 Std. -
Mo, 20.05. 13:00 0.0 l/m2 in 1 Std. -
Mo, 20.05. 12:30 0.0 l/m2 in 1 Std. -
Mo, 20.05. 12:00 0.0 l/m2 in 1 Std. -
Ortszeit Stärke Spitze Richtung
km/h Bft. km/h Grad Sektor
Mo, 20.05. 14:00 14 3 25 330° NW
Sa, 18.05. 8:00 4 1 11 100° O
Sa, 18.05. 2:00 0 0 11 - -
Fr, 17.05. 20:00 6 1 22 100° O
Fr, 17.05. 14:00 7 2 25 30° NO
Fr, 17.05. 8:00 7 2 11 110° O
Fr, 17.05. 2:00 0 0 7 - -
Do, 16.05. 20:00 4 1 25 350° N
Ortszeit Stärke Spitze Richtung
km/h Bft. km/h Grad Sektor
Mo, 20.05. 15:00 17 3 33 330° NW
Mo, 20.05. 14:50 17 3 - 330° NW
Mo, 20.05. 14:40 19 3 - 340° N
Mo, 20.05. 14:30 20 4 33 320° NW
Mo, 20.05. 14:20 20 4 - 320° NW
Mo, 20.05. 14:10 19 3 - 320° NW
Mo, 20.05. 14:00 14 3 25 330° NW
Mo, 20.05. 13:30 15 3 22 320° NW
Mo, 20.05. 13:00 15 3 28 320° NW
Mo, 20.05. 12:30 18 3 29 330° NW
Mo, 20.05. 12:00 18 3 29 320° NW
Ortszeit Untergrenze Bedeckung Gattung
total tief tief mittel hoch
Mo, 20.05. 14:00 630 m 5/8 1/8 - - -
Sa, 18.05. 8:00 <30 m 8/8 0/8 - - -
Sa, 18.05. 2:00 - 0/8 0/8 - - -
Fr, 17.05. 20:00 1350 m 8/8 8/8 - - -
Fr, 17.05. 14:00 660 m 7/8 7/8 - - -
Fr, 17.05. 8:00 120 m 7/8 7/8 - - -
Fr, 17.05. 2:00 480 m 7/8 7/8 - - -
Do, 16.05. 20:00 240 m 7/8 7/8 - - -
Ortszeit Bedeckungsgrad in Achtel und Wolkenuntergrenze
Mo, 20.05. 15:00 2(690m) 5(3900m) 7(4500m)
Mo, 20.05. 14:50 2(690m) 5(3900m) 7(4500m)
Mo, 20.05. 14:40 3(750m) 3(930m) 6(3900m)
Mo, 20.05. 14:30 3(720m) 4(3900m) 5(4500m)
Mo, 20.05. 14:20 3(720m) 4(3900m) 5(4500m)
Mo, 20.05. 14:10 2(690m) 3(3300m) 4(4500m)
Mo, 20.05. 14:00 1(630m) 5(3000m) 5(4500m)
Mo, 20.05. 13:30 4(1800m) 5(3000m)
Mo, 20.05. 13:00 1(1800m) 3(3000m) 5(3600m)
Mo, 20.05. 12:30 1(630m)
Mo, 20.05. 12:00 2(2100m) 3(2700m) 3(2400m)
Ortszeit Luftdruck NN (hPa) Tendenz (hPa in 3 Std.)
Mo, 20.05. 14:00 1004 - 0,2
Sa, 18.05. 8:00 1008 - 0,1
Sa, 18.05. 2:00 1008 - 0,7
Fr, 17.05. 20:00 1008 - 0,6
Fr, 17.05. 14:00 1009 - 1,0
Fr, 17.05. 8:00 1012 0,0
Fr, 17.05. 2:00 1013 - 0,8
Do, 16.05. 20:00 1014 - 0,9
Ortszeit Luftdruck NN (hPa) Tendenz (hPa in 3 Std.)
Mo, 20.05. 15:00 1004 - 0,6
Mo, 20.05. 14:50 1004 keine Meldung
Mo, 20.05. 14:40 1003 keine Meldung
Mo, 20.05. 14:30 1003 - 0,8
Mo, 20.05. 14:20 1003 keine Meldung
Mo, 20.05. 14:10 1004 keine Meldung
Mo, 20.05. 14:00 1004 - 0,2
Mo, 20.05. 13:30 1004 0,0
Mo, 20.05. 13:00 1004 0,0
Mo, 20.05. 12:30 1004 + 0,1
Mo, 20.05. 12:00 1004 keine Meldung
Ortszeit Schneehöhe (cm)
Mo, 20.05. 14:00 -
Sa, 18.05. 8:00 -
Sa, 18.05. 2:00 -
Fr, 17.05. 20:00 -
Fr, 17.05. 14:00 -
Fr, 17.05. 8:00 -
Fr, 17.05. 2:00 -
Do, 16.05. 20:00 -
Ortszeit Schneehöhe (cm)
Mo, 20.05. 15:00 -
Mo, 20.05. 14:50 -
Mo, 20.05. 14:40 -
Mo, 20.05. 14:30 -
Mo, 20.05. 14:20 -
Mo, 20.05. 14:10 -
Mo, 20.05. 14:00 -
Mo, 20.05. 13:30 -
Mo, 20.05. 13:00 -
Mo, 20.05. 12:30 -
Mo, 20.05. 12:00 -
Link zu dieser Seite / Seite empfehlen

Das Wetter in ...